Time;durP1;ratioP1;P1;durP2;ratioP2;P2;SDS_P1;SDS_P2;PMS_P1;PMS_P2;Temp;Humidity;BMP_temperature;BMP_pressure;BME280_temperature;BME280_humidity;BME280_pressure;Samples;Min_cycle;Max_cycle;Signal;HPM_P1;HPM_P2
2022/02/22 00:01:34;;;;;;;1.20;0.90;;;6.70;98.00;;;;;;5094384;28;20869;-66
2022/02/22 00:04:01;;;;;;;1.20;1.00;;;6.60;98.00;;;;;;5093040;28;21029;-66
2022/02/22 00:06:28;;;;;;;1.20;0.90;;;6.60;98.00;;;;;;5094301;28;20488;-67
2022/02/22 00:08:55;;;;;;;1.20;1.00;;;6.60;98.00;;;;;;5094132;28;20563;-66
2022/02/22 00:11:23;;;;;;;1.20;0.90;;;6.50;98.00;;;;;;5093783;28;20497;-66
2022/02/22 00:13:50;;;;;;;1.20;0.90;;;6.50;98.00;;;;;;5093795;28;20995;-66
2022/02/22 00:16:17;;;;;;;2.33;1.37;;;6.60;98.00;;;;;;5093939;28;20509;-66
2022/02/22 00:18:47;;;;;;;1.20;0.90;;;6.60;98.00;;;;;;5093709;28;20534;-66
2022/02/22 00:21:16;;;;;;;1.20;1.00;;;6.50;98.00;;;;;;5093737;28;20461;-67
2022/02/22 00:23:43;;;;;;;1.20;1.00;;;6.40;98.00;;;;;;5093538;28;20448;-66
2022/02/22 00:26:11;;;;;;;1.20;0.97;;;6.40;98.00;;;;;;5093751;28;21003;-66
2022/02/22 00:28:38;;;;;;;4.97;1.20;;;6.40;98.00;;;;;;5093421;28;20505;-66
2022/02/22 00:31:05;;;;;;;2.00;1.17;;;6.50;98.00;;;;;;5093755;28;20492;-68
2022/02/22 00:33:33;;;;;;;1.20;1.00;;;6.40;98.00;;;;;;5093484;28;20552;-66
2022/02/22 00:36:02;;;;;;;1.20;1.00;;;6.40;98.00;;;;;;5093693;28;20449;-67
2022/02/22 00:38:29;;;;;;;1.20;1.00;;;6.40;98.00;;;;;;5093520;28;20514;-66
2022/02/22 00:40:56;;;;;;;1.20;1.00;;;6.30;98.00;;;;;;5093752;28;20507;-68
2022/02/22 00:43:23;;;;;;;1.80;1.47;;;6.30;98.00;;;;;;5093525;28;20459;-66
2022/02/22 00:45:50;;;;;;;1.20;1.00;;;6.40;98.00;;;;;;5093281;28;20522;-66
2022/02/22 00:48:19;;;;;;;1.20;1.00;;;6.50;98.00;;;;;;5093212;28;20460;-66
2022/02/22 00:50:47;;;;;;;1.20;1.00;;;6.50;98.00;;;;;;5093386;28;20452;-69
2022/02/22 00:53:17;;;;;;;1.40;1.30;;;6.40;98.00;;;;;;5093231;28;20515;-66
2022/02/22 00:55:44;;;;;;;1.20;0.90;;;6.40;98.00;;;;;;5093040;28;20969;-67
2022/02/22 00:58:10;;;;;;;1.20;1.10;;;6.50;98.00;;;;;;5093262;28;20506;-66
2022/02/22 01:00:38;;;;;;;1.20;0.90;;;;;;;;;;5093026;28;20507;-65
2022/02/22 01:03:05;;;;;;;1.30;1.17;;;6.50;98.00;;;;;;5091590;28;20505;-67
2022/02/22 01:05:33;;;;;;;1.20;1.00;;;6.60;98.00;;;;;;5092848;28;20457;-66
2022/02/22 01:08:02;;;;;;;1.20;0.93;;;6.60;98.00;;;;;;5092784;28;20905;-67
2022/02/22 01:10:30;;;;;;;1.20;1.00;;;6.60;98.00;;;;;;5092651;28;20814;-65
2022/02/22 01:12:57;;;;;;;1.20;0.90;;;6.60;98.00;;;;;;5092606;28;20457;-66
2022/02/22 01:15:25;;;;;;;1.20;0.93;;;6.60;98.00;;;;;;5092742;28;20956;-66
2022/02/22 01:17:52;;;;;;;1.20;1.00;;;6.70;98.00;;;;;;5092779;28;20465;-67
2022/02/22 01:20:22;;;;;;;1.50;1.33;;;6.60;98.00;;;;;;5092603;28;21011;-67
2022/02/22 01:22:52;;;;;;;1.17;1.00;;;6.70;98.00;;;;;;5092586;28;20459;-66
2022/02/22 01:25:19;;;;;;;1.20;0.90;;;6.70;98.00;;;;;;5092501;28;20446;-67
2022/02/22 01:27:48;;;;;;;1.20;1.00;;;6.60;98.00;;;;;;5092537;28;20486;-67
2022/02/22 01:30:15;;;;;;;1.20;1.00;;;6.60;98.00;;;;;;5091191;28;20952;-66
2022/02/22 01:32:42;;;;;;;1.30;1.10;;;6.60;98.00;;;;;;5092609;28;20575;-67
2022/02/22 01:35:10;;;;;;;1.20;0.90;;;6.60;98.00;;;;;;5091144;28;20540;-66
2022/02/22 01:37:37;;;;;;;1.20;0.93;;;6.50;98.00;;;;;;5092375;28;20490;-67
2022/02/22 01:40:05;;;;;;;1.20;1.00;;;6.50;98.00;;;;;;5092312;28;20516;-65
2022/02/22 01:42:32;;;;;;;1.20;0.93;;;6.50;98.00;;;;;;5092416;28;20454;-67
2022/02/22 01:45:00;;;;;;;1.20;0.90;;;6.50;98.00;;;;;;5092343;28;20879;-66
2022/02/22 01:47:28;;;;;;;1.20;1.10;;;6.50;98.00;;;;;;5092425;28;20483;-65
2022/02/22 01:49:55;;;;;;;1.20;0.90;;;6.60;98.00;;;;;;5091797;28;20495;-66
2022/02/22 01:52:22;;;;;;;1.20;1.00;;;6.60;98.00;;;;;;5092237;28;20826;-68
2022/02/22 01:54:49;;;;;;;1.20;1.00;;;6.60;98.00;;;;;;5092002;28;20594;-66
2022/02/22 01:57:19;;;;;;;1.50;1.30;;;6.50;98.00;;;;;;5092029;28;20972;-68
2022/02/22 01:59:47;;;;;;;1.20;1.10;;;6.50;98.00;;;;;;5091780;28;20491;-68
2022/02/22 02:02:15;;;;;;;1.20;0.90;;;6.50;98.00;;;;;;5091484;28;20875;-65
2022/02/22 02:04:42;;;;;;;1.20;1.00;;;6.40;98.00;;;;;;5091738;28;20534;-67
2022/02/22 02:07:09;;;;;;;1.20;0.90;;;6.40;98.00;;;;;;5091832;28;20535;-65
2022/02/22 02:09:36;;;;;;;1.20;1.00;;;6.40;98.00;;;;;;5091805;28;20458;-65
2022/02/22 02:12:04;;;;;;;1.20;1.00;;;6.40;98.00;;;;;;5090690;28;20492;-66
2022/02/22 02:14:32;;;;;;;1.77;1.60;;;6.30;98.00;;;;;;5091536;28;20992;-66
2022/02/22 02:16:59;;;;;;;1.20;0.90;;;6.30;98.00;;;;;;5090739;28;20453;-66
2022/02/22 02:19:46;;;;;;;1.20;0.90;;;6.30;98.00;;;;;;5091677;28;20843;-67
2022/02/22 02:22:15;;;;;;;1.20;1.00;;;6.20;98.00;;;;;;5091693;28;20464;-66
2022/02/22 02:24:43;;;;;;;1.20;1.00;;;6.20;98.00;;;;;;5091771;28;20502;-66
2022/02/22 02:27:10;;;;;;;1.90;1.30;;;6.20;98.00;;;;;;5091721;28;20453;-67
2022/02/22 02:29:37;;;;;;;1.20;1.00;;;6.00;98.00;;;;;;5091824;28;20486;-66
2022/02/22 02:32:05;;;;;;;1.20;1.00;;;6.00;98.00;;;;;;5091860;28;20506;-66
2022/02/22 02:34:32;;;;;;;1.20;1.20;;;6.00;98.00;;;;;;5090675;28;20573;-67
2022/02/22 02:36:59;;;;;;;1.20;1.00;;;5.90;98.00;;;;;;5091735;28;20506;-66
2022/02/22 02:39:27;;;;;;;1.20;1.00;;;5.80;98.00;;;;;;5091872;28;20513;-68
2022/02/22 02:41:55;;;;;;;1.20;1.00;;;5.70;98.00;;;;;;5091680;28;20463;-66
2022/02/22 02:44:23;;;;;;;1.20;1.00;;;5.70;98.00;;;;;;5091436;28;20521;-66
2022/02/22 02:46:51;;;;;;;1.20;1.00;;;5.70;98.00;;;;;;5091391;28;20452;-65
2022/02/22 02:49:19;;;;;;;1.20;0.90;;;5.70;98.00;;;;;;5090767;28;20487;-67
2022/02/22 02:51:47;;;;;;;1.20;1.00;;;5.70;98.00;;;;;;5090879;28;20885;-66
2022/02/22 02:54:15;;;;;;;1.17;1.00;;;5.70;98.00;;;;;;5090918;28;20567;-66
2022/02/22 02:56:43;;;;;;;1.20;1.00;;;5.70;98.00;;;;;;5091147;28;20556;-68
2022/02/22 02:59:11;;;;;;;1.20;1.00;;;5.80;98.00;;;;;;5091197;28;20503;-66
2022/02/22 03:01:41;;;;;;;1.20;1.00;;;5.80;98.00;;;;;;5091273;28;20496;-67
2022/02/22 03:04:09;;;;;;;1.20;1.00;;;5.70;98.00;;;;;;5091352;28;20452;-67
2022/02/22 03:06:36;;;;;;;1.20;1.00;;;5.70;98.00;;;;;;5091268;28;20486;-65
2022/02/22 03:09:04;;;;;;;1.20;1.00;;;5.80;98.00;;;;;;5091187;28;20518;-66
2022/02/22 03:11:32;;;;;;;1.20;1.00;;;5.80;98.00;;;;;;5091744;28;20477;-65
2022/02/22 03:14:00;;;;;;;1.20;0.90;;;5.90;98.00;;;;;;5095092;28;20572;-66
2022/02/22 03:16:27;;;;;;;1.60;1.50;;;5.90;98.00;;;;;;5094382;28;20448;-67
2022/02/22 03:18:56;;;;;;;1.20;1.03;;;5.90;98.00;;;;;;5095074;28;20536;-68
2022/02/22 03:21:24;;;;;;;1.20;0.90;;;5.90;98.00;;;;;;5095141;28;20455;-68
2022/02/22 03:23:51;;;;;;;1.20;1.00;;;6.00;98.00;;;;;;5094998;28;20540;-66
2022/02/22 03:26:18;;;;;;;1.20;0.90;;;6.00;98.00;;;;;;5094882;28;21320;-68
2022/02/22 03:28:44;;;;;;;1.20;1.00;;;6.00;98.00;;;;;;5094981;28;20499;-66
2022/02/22 03:31:13;;;;;;;1.20;1.00;;;6.00;98.00;;;;;;5095072;28;20543;-68
2022/02/22 03:33:40;;;;;;;1.20;1.00;;;6.00;98.00;;;;;;5094729;28;20463;-67
2022/02/22 03:36:07;;;;;;;1.20;1.00;;;6.00;98.00;;;;;;5094688;28;20543;-66
2022/02/22 03:38:35;;;;;;;1.20;1.00;;;6.00;98.00;;;;;;5094967;28;20505;-66
2022/02/22 03:41:05;;;;;;;1.20;1.00;;;5.90;98.00;;;;;;5094559;28;20527;-65
2022/02/22 03:43:32;;;;;;;1.20;1.00;;;5.90;98.00;;;;;;5094512;28;20517;-67
2022/02/22 03:45:59;;;;;;;1.20;0.90;;;5.90;98.00;;;;;;5094312;28;21008;-69
2022/02/22 03:48:28;;;;;;;1.20;1.00;;;5.80;98.00;;;;;;5094386;28;20489;-65
2022/02/22 03:50:56;;;;;;;1.13;0.90;;;5.90;98.00;;;;;;5094471;28;20510;-67
2022/02/22 03:53:23;;;;;;;1.20;1.00;;;5.80;98.00;;;;;;5093173;28;20870;-66
2022/02/22 03:55:50;;;;;;;1.20;0.90;;;5.80;98.00;;;;;;5094053;28;21145;-66
2022/02/22 03:58:20;;;;;;;1.20;1.00;;;5.70;98.00;;;;;;5094281;28;20452;-66
2022/02/22 04:00:47;;;;;;;1.30;1.23;;;5.70;98.00;;;;;;5094100;28;20532;-67
2022/02/22 04:03:14;;;;;;;1.20;1.00;;;5.60;98.00;;;;;;5094272;28;20441;-65
2022/02/22 04:05:46;;;;;;;1.20;0.90;;;;;;;;;;5093907;28;20551;-66
2022/02/22 04:08:13;;;;;;;1.20;0.90;;;5.60;98.00;;;;;;5094189;28;20456;-66
2022/02/22 04:10:40;;;;;;;1.20;1.00;;;5.60;98.00;;;;;;5093476;28;20488;-66
2022/02/22 04:13:07;;;;;;;1.20;1.00;;;5.60;98.00;;;;;;5094087;28;20544;-66
2022/02/22 04:15:34;;;;;;;1.20;1.00;;;5.70;98.00;;;;;;5093665;28;20524;-66
2022/02/22 04:18:01;;;;;;;1.20;0.90;;;5.60;98.00;;;;;;5094062;28;20991;-66
2022/02/22 04:20:28;;;;;;;1.20;1.00;;;5.60;98.00;;;;;;5093855;28;20460;-67
2022/02/22 04:22:57;;;;;;;1.20;0.90;;;5.50;98.00;;;;;;5093912;28;20469;-67
2022/02/22 04:25:24;;;;;;;1.40;1.20;;;5.50;98.00;;;;;;5093368;28;20516;-67
2022/02/22 04:27:51;;;;;;;1.20;0.90;;;5.60;98.00;;;;;;5093810;28;20938;-66
2022/02/22 04:30:18;;;;;;;1.20;1.00;;;5.70;98.00;;;;;;5093286;28;20470;-68
2022/02/22 04:32:46;;;;;;;1.20;0.90;;;5.60;98.00;;;;;;5093592;28;20512;-67
2022/02/22 04:35:14;;;;;;;4.50;1.63;;;5.60;98.00;;;;;;5093268;28;20883;-66
2022/02/22 04:37:41;;;;;;;1.20;0.90;;;5.50;98.00;;;;;;5093466;28;20500;-66
2022/02/22 04:40:10;;;;;;;1.20;0.90;;;5.50;98.00;;;;;;5093338;28;20506;-66
2022/02/22 04:42:38;;;;;;;1.20;1.00;;;5.50;98.00;;;;;;5093631;28;20943;-66
2022/02/22 04:45:07;;;;;;;1.20;0.90;;;5.50;98.00;;;;;;5093494;28;21005;-67
2022/02/22 04:47:34;;;;;;;1.20;1.00;;;5.50;98.00;;;;;;5093419;28;20460;-66
2022/02/22 04:50:01;;;;;;;1.20;1.00;;;5.50;98.00;;;;;;5093223;28;20483;-67
2022/02/22 04:52:28;;;;;;;1.20;1.00;;;5.50;98.00;;;;;;5093439;28;20460;-66
2022/02/22 04:54:55;;;;;;;1.20;1.00;;;5.40;98.00;;;;;;5093164;28;20568;-66
2022/02/22 04:57:26;;;;;;;1.30;1.10;;;5.40;98.00;;;;;;5093082;28;20500;-66
2022/02/22 04:59:53;;;;;;;1.20;1.00;;;5.30;98.00;;;;;;5091827;28;20460;-67
2022/02/22 05:02:20;;;;;;;1.30;1.17;;;5.30;98.00;;;;;;5093143;28;20460;-66
2022/02/22 05:04:48;;;;;;;1.20;1.00;;;5.30;98.00;;;;;;5092942;28;20518;-67
2022/02/22 05:07:15;;;;;;;1.20;1.00;;;5.20;98.00;;;;;;5091968;28;20514;-66
2022/02/22 05:09:42;;;;;;;1.20;1.00;;;5.10;98.00;;;;;;5093106;28;20557;-68
2022/02/22 05:12:10;;;;;;;1.20;1.00;;;5.10;98.00;;;;;;5093174;28;20560;-65
2022/02/22 05:14:39;;;;;;;1.20;1.00;;;5.00;98.00;;;;;;5092980;28;20861;-66
2022/02/22 05:17:06;;;;;;;1.20;1.00;;;4.90;98.00;;;;;;5092929;28;20838;-66
2022/02/22 05:19:33;;;;;;;1.20;1.00;;;4.80;98.00;;;;;;5092743;28;20509;-66
2022/02/22 05:22:00;;;;;;;1.20;1.00;;;4.80;98.00;;;;;;5091498;28;20456;-65
2022/02/22 05:24:27;;;;;;;1.20;0.90;;;4.90;98.00;;;;;;5092512;28;20488;-66
2022/02/22 05:26:55;;;;;;;1.20;1.00;;;4.80;98.00;;;;;;5092267;28;21002;-66
2022/02/22 05:29:22;;;;;;;1.20;1.00;;;4.90;98.00;;;;;;5092372;28;20965;-66
2022/02/22 05:31:51;;;;;;;1.77;1.23;;;4.80;98.00;;;;;;5092527;28;20468;-66
2022/02/22 05:34:18;;;;;;;1.20;1.00;;;4.80;98.00;;;;;;5092277;28;20550;-68
2022/02/22 05:36:45;;;;;;;1.20;1.00;;;4.70;98.00;;;;;;5091566;28;20689;-66
2022/02/22 05:39:12;;;;;;;1.20;1.00;;;4.70;98.00;;;;;;5091184;28;20499;-65
2022/02/22 05:41:39;;;;;;;1.20;1.10;;;4.70;98.00;;;;;;5092280;28;20495;-68
2022/02/22 05:44:06;;;;;;;1.30;1.13;;;4.60;98.00;;;;;;5092415;28;20547;-65
2022/02/22 05:46:33;;;;;;;1.20;1.07;;;4.60;98.00;;;;;;5092338;28;20488;-67
2022/02/22 05:49:01;;;;;;;1.20;1.00;;;4.50;98.00;;;;;;5092373;28;20550;-66
2022/02/22 05:51:28;;;;;;;1.30;1.07;;;4.60;98.00;;;;;;5092335;28;20495;-67
2022/02/22 05:53:55;;;;;;;1.20;0.90;;;4.70;98.00;;;;;;5092218;28;20942;-66
2022/02/22 05:56:22;;;;;;;1.20;1.00;;;4.70;98.00;;;;;;5091587;28;20523;-66
2022/02/22 05:58:49;;;;;;;1.20;1.00;;;4.90;98.00;;;;;;5092463;28;20881;-67
2022/02/22 06:01:16;;;;;;;1.20;1.20;;;4.90;98.00;;;;;;5092188;28;20535;-67
2022/02/22 06:03:43;;;;;;;1.20;1.00;;;4.80;98.00;;;;;;5092258;28;20967;-66
2022/02/22 06:06:11;;;;;;;1.20;1.10;;;4.70;98.00;;;;;;5092136;28;20518;-66
2022/02/22 06:08:38;;;;;;;1.20;1.00;;;4.80;98.00;;;;;;5091995;28;20510;-66
2022/02/22 06:11:05;;;;;;;6.43;2.80;;;4.90;98.00;;;;;;5091790;28;20499;-66
2022/02/22 06:13:32;;;;;;;1.20;1.00;;;4.90;98.00;;;;;;5091996;28;20534;-66
2022/02/22 06:15:59;;;;;;;1.20;1.00;;;4.90;98.00;;;;;;5091655;28;20567;-67
2022/02/22 06:18:26;;;;;;;1.20;1.00;;;4.80;98.00;;;;;;5091759;28;20484;-66
2022/02/22 06:20:53;;;;;;;1.50;1.10;;;4.80;98.00;;;;;;5091759;28;20452;-66
2022/02/22 06:23:22;;;;;;;1.20;1.20;;;4.90;98.00;;;;;;5091744;28;20491;-68
2022/02/22 06:25:49;;;;;;;1.20;1.00;;;4.80;98.00;;;;;;5091408;28;20445;-66
2022/02/22 06:28:16;;;;;;;1.20;1.03;;;4.70;98.00;;;;;;5091693;28;20484;-67
2022/02/22 06:30:43;;;;;;;1.20;1.00;;;4.60;98.00;;;;;;5091578;28;20541;-66
2022/02/22 06:33:10;;;;;;;1.20;0.97;;;4.60;98.00;;;;;;5091732;28;20460;-66
2022/02/22 06:35:38;;;;;;;1.20;1.00;;;4.60;98.00;;;;;;5090394;28;20599;-66
2022/02/22 06:38:05;;;;;;;1.20;1.00;;;4.60;98.00;;;;;;5091715;28;20455;-65
2022/02/22 06:40:37;;;;;;;1.20;0.90;;;4.60;98.00;;;;;;5091623;28;20581;-66
2022/02/22 06:43:04;;;;;;;1.20;1.00;;;4.60;98.00;;;;;;5090598;28;20471;-68
2022/02/22 06:45:31;;;;;;;1.20;0.90;;;4.60;98.00;;;;;;5091715;28;20448;-67
2022/02/22 06:47:59;;;;;;;3.10;1.57;;;4.60;98.00;;;;;;5094617;28;20498;-68
2022/02/22 06:50:26;;;;;;;1.20;1.00;;;4.60;98.00;;;;;;5095312;28;20542;-65
2022/02/22 06:52:53;;;;;;;1.20;0.90;;;4.70;98.00;;;;;;5095991;28;20457;-66
2022/02/22 06:55:20;;;;;;;5.03;1.27;;;4.70;98.00;;;;;;5095598;28;20516;-66
2022/02/22 06:57:55;;;;;;;1.20;1.07;;;4.60;98.00;;;;;;5095735;28;20512;-66
2022/02/22 07:00:22;;;;;;;1.20;1.00;;;4.60;98.00;;;;;;5095526;28;20456;-65
2022/02/22 07:02:49;;;;;;;2.90;1.20;;;4.60;98.00;;;;;;5095491;28;20970;-67
2022/02/22 07:05:19;;;;;;;1.20;0.97;;;4.60;98.00;;;;;;5095284;28;20448;-67
2022/02/22 07:07:46;;;;;;;1.20;1.03;;;4.60;98.00;;;;;;5095334;28;20456;-67
2022/02/22 07:10:17;;;;;;;1.13;1.00;;;4.60;98.00;;;;;;5095242;28;21044;-67
2022/02/22 07:12:44;;;;;;;1.30;1.03;;;4.60;98.00;;;;;;5095201;28;20492;-65
2022/02/22 07:15:14;;;;;;;1.20;1.00;;;4.70;98.00;;;;;;5095056;28;20902;-66
2022/02/22 07:17:48;;;;;;;1.20;1.00;;;4.70;98.00;;;;;;5093964;28;20487;-65
2022/02/22 07:20:18;;;;;;;1.70;1.23;;;4.80;98.00;;;;;;5094993;28;20493;-66
2022/02/22 07:22:48;;;;;;;2.63;1.57;;;4.80;98.00;;;;;;5095023;28;20539;-65
2022/02/22 07:25:25;;;;;;;1.20;1.00;;;5.00;98.00;;;;;;5094698;28;20539;-66
2022/02/22 07:27:53;;;;;;;1.20;0.90;;;5.00;98.00;;;;;;5094966;28;20464;-68
2022/02/22 07:30:22;;;;;;;1.20;1.00;;;5.20;98.00;;;;;;5094951;28;20507;-66
2022/02/22 07:32:50;;;;;;;1.20;1.00;;;5.30;98.00;;;;;;5094949;28;20457;-66
2022/02/22 07:35:18;;;;;;;1.20;1.10;;;5.40;98.00;;;;;;5094672;28;20529;-67
2022/02/22 07:37:46;;;;;;;1.20;0.90;;;5.50;98.00;;;;;;5094898;28;20483;-67
2022/02/22 07:40:14;;;;;;;1.20;0.90;;;5.60;98.00;;;;;;5094651;28;20545;-66
2022/02/22 07:42:42;;;;;;;1.20;1.10;;;5.70;98.00;;;;;;5094954;28;20455;-67
2022/02/22 07:45:10;;;;;;;1.60;1.40;;;5.70;98.00;;;;;;5094592;28;20537;-67
2022/02/22 07:47:45;;;;;;;1.20;0.90;;;5.70;98.00;;;;;;5094712;28;20476;-66
2022/02/22 07:50:12;;;;;;;1.20;0.93;;;5.70;98.00;;;;;;5093852;28;20455;-67
2022/02/22 07:52:40;;;;;;;1.30;1.10;;;5.80;98.00;;;;;;5094016;28;20457;-67
2022/02/22 07:55:08;;;;;;;1.20;1.00;;;5.90;98.00;;;;;;5093987;28;20885;-66
2022/02/22 07:57:36;;;;;;;1.20;1.00;;;5.90;98.00;;;;;;5094440;28;20504;-67
2022/02/22 08:00:05;;;;;;;1.20;1.10;;;5.90;98.00;;;;;;5093373;28;20491;-67
2022/02/22 08:02:32;;;;;;;1.20;0.90;;;5.90;98.00;;;;;;5107572;28;20498;-67
2022/02/22 08:05:01;;;;;;;6.27;1.67;;;5.90;98.00;;;;;;5101777;28;20551;-68
2022/02/22 08:07:28;;;;;;;1.23;1.17;;;6.00;98.00;;;;;;5101298;28;20535;-67
2022/02/22 08:09:55;;;;;;;1.20;0.90;;;5.90;98.00;;;;;;5092403;28;20491;-68
2022/02/22 08:12:22;;;;;;;1.20;0.90;;;6.00;98.00;;;;;;5109612;28;20487;-68
2022/02/22 08:14:49;;;;;;;4.10;1.40;;;6.00;98.00;;;;;;5108525;28;20485;-68
2022/02/22 08:17:16;;;;;;;1.17;1.00;;;6.10;98.00;;;;;;5093805;28;20516;-67
2022/02/22 08:19:43;;;;;;;1.20;1.00;;;6.00;98.00;;;;;;5101620;28;20555;-67
2022/02/22 08:22:12;;;;;;;4.00;2.07;;;6.20;98.00;;;;;;5101111;28;20499;-67
2022/02/22 08:24:39;;;;;;;1.20;1.00;;;6.20;98.00;;;;;;5094035;28;20500;-68
2022/02/22 08:27:06;;;;;;;1.20;1.00;;;6.20;98.00;;;;;;5100787;28;20484;-68
2022/02/22 08:29:33;;;;;;;1.23;1.10;;;6.20;98.00;;;;;;5109824;28;20478;-67
2022/02/22 08:32:00;;;;;;;1.20;1.00;;;6.20;98.00;;;;;;5103153;28;20461;-67
2022/02/22 08:34:27;;;;;;;1.20;1.00;;;6.20;98.00;;;;;;5107538;28;21090;-66
2022/02/22 08:36:54;;;;;;;1.20;1.10;;;6.20;98.00;;;;;;5111777;28;20516;-67
2022/02/22 08:39:25;;;;;;;1.20;1.00;;;6.20;98.00;;;;;;5113547;28;21067;-68
2022/02/22 08:41:53;;;;;;;1.20;1.03;;;6.30;98.00;;;;;;5114064;27;20460;-69
2022/02/22 08:44:20;;;;;;;1.20;1.00;;;6.30;98.00;;;;;;5113819;28;20511;-69
2022/02/22 08:46:48;;;;;;;1.20;1.00;;;6.30;98.00;;;;;;5113958;28;20519;-67
2022/02/22 08:49:16;;;;;;;1.20;1.00;;;6.40;98.00;;;;;;5112691;28;20468;-67
2022/02/22 08:51:43;;;;;;;1.20;0.90;;;6.50;98.00;;;;;;5113710;28;20938;-68
2022/02/22 08:54:10;;;;;;;1.37;1.13;;;6.50;98.00;;;;;;5112303;28;20488;-68
2022/02/22 08:56:38;;;;;;;1.20;0.97;;;6.60;98.00;;;;;;5113227;28;20537;-68
2022/02/22 08:59:05;;;;;;;1.10;0.90;;;6.70;98.00;;;;;;5113607;28;20475;-67
2022/02/22 09:01:32;;;;;;;1.60;1.00;;;6.70;98.00;;;;;;5113476;28;20977;-69
2022/02/22 09:03:59;;;;;;;1.20;1.00;;;6.80;98.00;;;;;;5113510;28;20482;-68
2022/02/22 09:06:26;;;;;;;14.60;1.40;;;6.90;98.00;;;;;;5113345;28;20512;-68
2022/02/22 09:08:54;;;;;;;1.20;1.07;;;7.00;98.00;;;;;;5113480;28;20454;-68
2022/02/22 09:11:21;;;;;;;1.30;1.20;;;7.10;98.00;;;;;;5113059;28;20544;-68
2022/02/22 09:13:49;;;;;;;1.10;0.90;;;7.20;98.00;;;;;;5113313;28;20887;-67
2022/02/22 09:16:16;;;;;;;1.20;1.10;;;7.10;98.00;;;;;;5113093;27;20489;-68
2022/02/22 09:18:44;;;;;;;1.30;1.00;;;7.10;98.00;;;;;;5113127;28;20494;-68
2022/02/22 09:21:11;;;;;;;1.20;1.10;;;7.10;98.00;;;;;;5111952;28;20456;-68
2022/02/22 09:23:38;;;;;;;1.20;1.00;;;7.10;98.00;;;;;;5113269;28;20453;-70
2022/02/22 09:26:05;;;;;;;1.20;1.00;;;7.20;98.00;;;;;;5113218;28;20488;-68
2022/02/22 09:28:32;;;;;;;1.20;1.00;;;7.20;98.00;;;;;;5113164;28;20490;-67
2022/02/22 09:31:00;;;;;;;1.17;1.00;;;7.30;98.00;;;;;;5113100;28;20493;-68
2022/02/22 09:33:27;;;;;;;1.83;1.57;;;7.40;98.00;;;;;;5113121;28;21011;-68
2022/02/22 09:35:54;;;;;;;1.20;1.10;;;7.40;98.00;;;;;;5112783;28;20603;-69
2022/02/22 09:38:21;;;;;;;1.20;1.07;;;7.50;98.00;;;;;;5113025;28;20459;-68
2022/02/22 09:40:48;;;;;;;1.83;1.37;;;7.60;98.00;;;;;;5112663;28;20563;-68
2022/02/22 09:43:16;;;;;;;1.20;1.00;;;7.60;98.00;;;;;;5113083;28;20488;-68
2022/02/22 09:45:45;;;;;;;1.20;1.20;;;7.60;98.00;;;;;;5112399;28;20787;-67
2022/02/22 09:48:14;;;;;;;1.10;0.90;;;7.70;98.00;;;;;;5112885;28;20456;-68
2022/02/22 09:50:41;;;;;;;1.20;1.00;;;7.80;98.00;;;;;;5112390;28;20890;-67
2022/02/22 09:53:09;;;;;;;1.20;0.97;;;7.70;98.00;;;;;;5112799;28;20455;-67
2022/02/22 09:55:36;;;;;;;1.50;1.13;;;7.80;98.00;;;;;;5112264;28;20899;-69
2022/02/22 09:58:03;;;;;;;1.20;1.00;;;7.80;98.00;;;;;;5112588;28;20485;-67
2022/02/22 10:00:32;;;;;;;1.17;1.00;;;7.80;98.00;;;;;;5111228;28;20493;-69
2022/02/22 10:02:59;;;;;;;1.97;1.60;;;7.60;98.00;;;;;;5112537;28;20451;-68
2022/02/22 10:05:29;;;;;;;1.20;1.00;;;7.50;98.00;;;;;;5111103;28;20457;-67
2022/02/22 10:07:57;;;;;;;1.20;0.93;;;7.50;98.00;;;;;;5112512;28;20489;-67
2022/02/22 10:10:35;;;;;;;1.20;1.10;;;7.50;98.00;;;;;;5112316;28;20526;-68
2022/02/22 10:13:03;;;;;;;1.20;1.00;;;7.60;98.00;;;;;;5112504;28;20488;-68
2022/02/22 10:15:38;;;;;;;1.20;0.90;;;7.70;98.00;;;;;;5111827;28;20453;-68
2022/02/22 10:18:06;;;;;;;1.20;0.90;;;7.80;98.00;;;;;;5112222;28;20489;-68
2022/02/22 10:20:34;;;;;;;1.20;1.00;;;7.90;98.00;;;;;;5110531;28;20457;-67
2022/02/22 10:23:02;;;;;;;1.20;0.90;;;7.90;98.00;;;;;;5111939;28;20880;-68
2022/02/22 10:25:29;;;;;;;2.13;1.40;;;8.00;98.00;;;;;;5112428;28;20807;-68
2022/02/22 10:27:59;;;;;;;1.20;0.90;;;8.00;98.00;;;;;;5112374;28;20447;-68
2022/02/22 10:30:37;;;;;;;1.47;1.10;;;8.10;98.00;;;;;;5112085;28;20455;-68
2022/02/22 10:33:11;;;;;;;3.30;1.60;;;8.20;98.00;;;;;;5112036;28;20457;-67
2022/02/22 10:35:41;;;;;;;1.20;1.00;;;8.40;98.00;;;;;;5111824;28;20560;-69
2022/02/22 10:38:15;;;;;;;1.20;0.90;;;8.40;98.00;;;;;;5112100;28;21136;-68
2022/02/22 10:40:43;;;;;;;1.20;1.00;;;8.60;98.00;;;;;;5111815;28;20545;-69
2022/02/22 10:43:21;;;;;;;1.20;1.10;;;8.60;98.00;;;;;;5111539;28;20507;-68
2022/02/22 10:45:49;;;;;;;1.20;1.10;;;8.70;98.00;;;;;;5111721;28;20466;-69
2022/02/22 10:48:29;;;;;;;1.20;1.00;;;8.80;98.00;;;;;;5112036;28;20457;-68
2022/02/22 10:51:02;;;;;;;1.47;1.43;;;8.90;98.00;;;;;;5111978;28;20552;-70
2022/02/22 10:53:31;;;;;;;1.20;1.00;;;9.10;98.00;;;;;;5104282;28;20456;-71
2022/02/22 10:55:58;;;;;;;2.03;1.20;;;9.10;98.00;;;;;;5092814;28;20547;-73
2022/02/22 10:58:26;;;;;;;1.20;0.93;;;9.10;98.00;;;;;;5098749;28;20859;-70
2022/02/22 11:00:54;;;;;;;1.20;1.00;;;9.10;98.00;;;;;;5095800;28;20465;-69
2022/02/22 11:03:21;;;;;;;1.20;1.10;;;9.10;98.00;;;;;;5099599;28;20511;-69
2022/02/22 11:05:49;;;;;;;1.20;1.00;;;9.10;98.00;;;;;;5092842;28;20492;-69
2022/02/22 11:08:27;;;;;;;2.17;1.70;;;9.00;98.00;;;;;;5106243;28;21919;-69
2022/02/22 11:10:59;;;;;;;1.20;1.00;;;9.00;98.00;;;;;;5098644;28;20901;-70
2022/02/22 11:13:30;;;;;;;3.20;1.57;;;9.00;98.00;;;;;;5091092;28;20502;-69
2022/02/22 11:16:11;;;;;;;1.20;1.00;;;9.00;98.00;;;;;;5095052;28;21026;-69
2022/02/22 11:18:45;;;;;;;1.20;1.10;;;9.00;98.00;;;;;;5100165;28;20514;-69
2022/02/22 11:21:12;;;;;;;1.20;1.00;;;9.20;98.00;;;;;;5097644;28;20452;-70
2022/02/22 11:23:42;;;;;;;1.20;1.00;;;9.30;98.00;;;;;;5100039;28;20574;-70
2022/02/22 11:26:12;;;;;;;1.20;0.97;;;9.40;98.00;;;;;;5103923;28;20544;-70
2022/02/22 11:28:42;;;;;;;1.20;0.97;;;9.20;98.00;;;;;;5098034;28;20460;-69
2022/02/22 11:31:11;;;;;;;1.20;1.00;;;9.10;98.00;;;;;;5097265;28;20886;-70
2022/02/22 11:33:43;;;;;;;1.33;1.20;;;9.00;98.00;;;;;;5106961;28;20454;-69
2022/02/22 11:36:11;;;;;;;1.20;1.00;;;9.00;98.00;;;;;;5102505;28;20463;-70
2022/02/22 11:38:47;;;;;;;1.57;1.23;;;8.90;98.00;;;;;;5094144;28;20522;-69
2022/02/22 11:41:19;;;;;;;1.20;1.20;;;8.90;98.00;;;;;;5109645;28;20544;-69
2022/02/22 11:43:55;;;;;;;1.60;1.40;;;8.80;98.00;;;;;;5110701;28;20557;-69
2022/02/22 11:46:35;;;;;;;1.20;1.00;;;8.70;98.00;;;;;;5101866;28;20489;-68
2022/02/22 11:49:04;;;;;;;1.20;1.00;;;8.70;98.00;;;;;;5104953;28;20497;-69
2022/02/22 11:51:52;;;;;;;1.20;1.00;;;8.70;98.00;;;;;;5091722;28;20548;-69
2022/02/22 11:54:24;;;;;;;1.20;1.00;;;8.90;98.00;;;;;;5098244;28;20457;-69
2022/02/22 11:57:03;;;;;;;1.43;1.10;;;9.00;98.00;;;;;;5107002;28;20550;-68
2022/02/22 11:59:33;;;;;;;1.20;1.00;;;9.10;98.00;;;;;;5109173;28;20960;-69
2022/02/22 12:02:02;;;;;;;1.30;1.20;;;9.20;98.00;;;;;;5103949;28;20813;-69
2022/02/22 12:04:31;;;;;;;1.20;1.10;;;9.20;98.00;;;;;;5093256;28;20496;-70
2022/02/22 12:07:04;;;;;;;1.20;1.17;;;9.20;98.00;;;;;;5102361;28;20494;-71
2022/02/22 12:09:38;;;;;;;9.03;1.50;;;9.50;98.00;;;;;;5093888;28;20457;-70
2022/02/22 12:12:07;;;;;;;3.93;1.67;;;9.50;98.00;;;;;;5109853;28;20460;-68
2022/02/22 12:14:35;;;;;;;1.20;1.00;;;9.50;98.00;;;;;;5110820;28;20500;-69
2022/02/22 12:17:05;;;;;;;1.80;1.47;;;9.60;98.00;;;;;;5092767;28;20488;-69
2022/02/22 12:19:35;;;;;;;1.20;1.00;;;9.60;98.00;;;;;;5110508;28;20573;-70
2022/02/22 12:22:03;;;;;;;1.20;1.00;;;9.60;98.00;;;;;;5100906;28;20457;-70
2022/02/22 12:24:30;;;;;;;1.20;0.90;;;9.60;98.00;;;;;;5100614;28;20492;-69
2022/02/22 12:27:09;;;;;;;1.20;1.00;;;9.50;98.00;;;;;;5093380;28;20485;-70
2022/02/22 12:29:36;;;;;;;1.20;1.00;;;9.50;98.00;;;;;;5110046;28;20484;-70
2022/02/22 12:32:03;;;;;;;1.20;0.90;;;9.30;98.00;;;;;;5092614;28;20487;-70
2022/02/22 12:34:31;;;;;;;1.20;1.00;;;9.20;98.00;;;;;;5101675;28;20454;-69
2022/02/22 12:37:02;;;;;;;1.20;0.90;;;9.20;98.00;;;;;;5093054;28;20998;-69
2022/02/22 12:39:33;;;;;;;1.83;1.53;;;9.20;98.00;;;;;;5100756;28;20456;-69
2022/02/22 12:42:03;;;;;;;1.13;1.00;;;9.20;98.00;;;;;;5092415;28;20487;-70
2022/02/22 12:44:39;;;;;;;1.73;1.30;;;9.10;98.00;;;;;;5092831;28;20533;-70
2022/02/22 12:47:06;;;;;;;1.20;1.10;;;9.20;98.00;;;;;;5105303;28;20454;-69
2022/02/22 12:49:34;;;;;;;2.00;1.60;;;9.40;98.00;;;;;;5091151;28;20553;-69
2022/02/22 12:52:03;;;;;;;1.20;1.00;;;9.40;98.00;;;;;;5099919;28;20462;-69
2022/02/22 12:54:32;;;;;;;1.20;1.00;;;9.40;98.00;;;;;;5093954;28;20600;-69
2022/02/22 12:57:02;;;;;;;1.20;1.10;;;9.40;98.00;;;;;;5098817;28;20494;-69
2022/02/22 12:59:32;;;;;;;1.20;0.90;;;9.40;98.00;;;;;;5103037;28;20943;-69
2022/02/22 13:02:00;;;;;;;1.20;1.00;;;9.40;98.00;;;;;;5097938;28;20465;-70
2022/02/22 13:04:28;;;;;;;1.20;1.00;;;9.40;98.00;;;;;;5091381;28;20494;-69